Etusivu
METAR-TAF:

METAR-TAF

Lentoasemat :

Waycross, Georgia, Yhdysvallat

Leveyspiiri: 31-15N, Pituuspiiri: 082-24W, korkeus merenpinnasta: 46 m

Tämänhetkinen sää

Tämä raportti tehtiin 17 minuuttia sitten, kello 09.35 UTC
Tuuli 3 kn idästä/kaakosta
Lämpötila 15°C
Kosteus 82%
Ilmanpaine 1020 hPa
Näkyvyys: 11.3 km
Pilvistä 400 ft:n korkeudessa

METAR: KAYS 180935Z AUTO 11003KT 7SM OVC004 15/12 A3013 RMK AO2 T01500124 TSNO

Aika: 04:52 (09:52 UTC)


TAF: puuttuu

Säähavainnot ja -ennusteet yli 4000 lentoasemalta (METAR- ja TAF-raportit).

Käytössä olevat sääasemat on merkitty karttaan keltaisilla ja punaisilla pisteillä.

Aseta hiiri pisteen päälle nähdäksesi sääaseman nimen.

Klikkaa sitten nähdäksesi säähavainnot ja -ennusteet.

Kartan vaihtaminen: klikkaa mustalla rastilla varustettuja vihreitä pisteitä, niin voit zoomata sisään; viivalla varustettua vihreää pistettä, niin voit zoomata ulos tai vihreitä nuolia, niin pääset viereisille kartoille.


METAR-TAF: